Time;durP1;ratioP1;P1;durP2;ratioP2;P2;SDS_P1;SDS_P2;PMS_P1;PMS_P2;Temp;Humidity;BMP_temperature;BMP_pressure;BME280_temperature;BME280_humidity;BME280_pressure;Samples;Min_cycle;Max_cycle;Signal;HPM_P1;HPM_P2
2023/04/27 00:01:13;;;;;;;12.00;5.68;;;4.80;97.20;;;;;;4927161;29;20027;-93
2023/04/27 00:03:39;;;;;;;13.05;5.55;;;4.70;97.40;;;;;;4924898;29;20487;-91
2023/04/27 00:06:05;;;;;;;12.65;5.70;;;4.70;97.70;;;;;;4931953;29;20032;-90
2023/04/27 00:08:30;;;;;;;10.32;5.00;;;4.60;97.90;;;;;;4938259;29;20213;-92
2023/04/27 00:10:56;;;;;;;14.45;5.43;;;4.60;98.10;;;;;;4929054;29;20048;-91
2023/04/27 00:13:22;;;;;;;14.65;5.70;;;4.50;98.30;;;;;;4908823;29;20105;-92
2023/04/27 00:15:48;;;;;;;10.95;5.40;;;4.50;98.50;;;;;;4910306;29;20032;-91
2023/04/27 00:18:13;;;;;;;13.65;5.90;;;4.50;98.90;;;;;;4908706;29;20446;-90
2023/04/27 00:20:39;;;;;;;10.88;5.25;;;4.40;99.10;;;;;;4909378;29;20070;-91
2023/04/27 00:23:05;;;;;;;10.90;5.85;;;4.40;99.40;;;;;;4913467;29;20027;-91
2023/04/27 00:25:31;;;;;;;13.18;5.72;;;4.40;99.70;;;;;;4917113;29;20027;-92
2023/04/27 00:27:57;;;;;;;11.00;5.10;;;4.30;99.90;;;;;;4908965;29;20053;-90
2023/04/27 00:30:22;;;;;;;13.60;6.07;;;4.30;99.90;;;;;;4911488;29;20040;-91
2023/04/27 00:32:48;;;;;;;10.68;5.60;;;4.20;99.90;;;;;;4911651;29;20024;-91
2023/04/27 00:35:13;;;;;;;13.40;6.03;;;4.20;99.90;;;;;;4909485;29;20026;-91
2023/04/27 00:37:39;;;;;;;15.55;6.35;;;4.20;99.90;;;;;;4909066;29;20386;-91
2023/04/27 00:40:06;;;;;;;13.23;6.10;;;4.10;99.90;;;;;;4908323;29;20577;-90
2023/04/27 00:42:32;;;;;;;12.35;6.18;;;4.10;99.90;;;;;;4910589;29;20028;-90
2023/04/27 00:44:58;;;;;;;16.52;6.50;;;4.10;99.90;;;;;;4908881;29;20409;-91
2023/04/27 00:47:24;;;;;;;17.75;7.80;;;4.10;99.90;;;;;;4907547;29;20032;-90
2023/04/27 00:49:50;;;;;;;14.25;6.50;;;4.00;99.90;;;;;;4908115;29;20088;-91
2023/04/27 00:52:17;;;;;;;16.85;6.32;;;4.00;99.90;;;;;;4911445;29;20025;-92
2023/04/27 00:54:43;;;;;;;17.35;6.60;;;4.00;99.90;;;;;;4913735;29;20016;-91
2023/04/27 00:57:09;;;;;;;15.50;6.50;;;4.00;99.90;;;;;;4928500;29;20036;-92
2023/04/27 00:59:34;;;;;;;13.27;6.28;;;4.00;99.90;;;;;;4909172;29;20043;-91
2023/04/27 01:02:00;;;;;;;12.45;6.40;;;3.90;99.90;;;;;;4909175;29;20020;-91
2023/04/27 01:04:27;;;;;;;14.98;6.25;;;3.90;99.90;;;;;;4907538;29;20036;-91
2023/04/27 01:06:53;;;;;;;13.68;6.15;;;3.90;99.90;;;;;;4907694;29;20027;-92
2023/04/27 01:09:19;;;;;;;15.68;6.53;;;3.80;99.90;;;;;;4907984;29;20028;-90
2023/04/27 01:11:46;;;;;;;19.48;5.78;;;3.90;99.90;;;;;;4919110;29;20097;-92
2023/04/27 01:14:11;;;;;;;18.95;6.60;;;3.90;99.90;;;;;;4924439;29;20087;-91
2023/04/27 01:16:37;;;;;;;9.30;5.43;;;3.80;99.90;;;;;;4923701;29;20099;-91
2023/04/27 01:19:03;;;;;;;10.38;6.00;;;3.80;99.90;;;;;;4925068;29;20576;-92
2023/04/27 01:21:29;;;;;;;10.40;6.22;;;3.90;99.90;;;;;;4925909;29;20031;-92
2023/04/27 01:23:55;;;;;;;13.30;6.40;;;3.80;99.90;;;;;;4923939;29;20020;-93
2023/04/27 01:26:21;;;;;;;13.75;6.03;;;3.80;99.90;;;;;;4924013;29;20059;-91
2023/04/27 01:28:47;;;;;;;13.13;6.40;;;3.80;99.90;;;;;;4924973;29;20035;-92
2023/04/27 01:31:13;;;;;;;12.02;6.38;;;3.80;99.90;;;;;;4923511;29;20028;-90
2023/04/27 01:33:40;;;;;;;12.60;6.88;;;3.70;99.90;;;;;;4938825;29;20595;-91
2023/04/27 01:36:06;;;;;;;13.00;6.28;;;3.70;99.90;;;;;;4927631;29;20485;-91
2023/04/27 01:38:33;;;;;;;13.27;6.55;;;3.70;99.90;;;;;;4925634;29;20055;-90
2023/04/27 01:41:02;;;;;;;12.05;6.50;;;3.60;99.90;;;;;;4930257;29;20023;-92
2023/04/27 01:43:28;;;;;;;14.80;6.63;;;3.60;99.90;;;;;;4927103;29;20123;-92
2023/04/27 01:45:54;;;;;;;11.52;6.10;;;3.50;99.90;;;;;;4929094;29;20051;-90
2023/04/27 01:48:21;;;;;;;18.65;6.63;;;3.50;99.90;;;;;;4929434;29;20035;-91
2023/04/27 01:50:46;;;;;;;12.30;6.35;;;3.50;99.90;;;;;;4926856;29;20028;-92
2023/04/27 01:53:12;;;;;;;10.77;6.30;;;3.40;99.90;;;;;;4928926;29;20024;-91
2023/04/27 01:55:38;;;;;;;13.57;6.72;;;3.40;99.90;;;;;;4932405;29;20106;-91
2023/04/27 01:58:04;;;;;;;12.30;6.35;;;3.40;99.90;;;;;;4930341;29;20474;-91
2023/04/27 02:00:29;;;;;;;12.80;6.82;;;3.40;99.90;;;;;;4930392;29;20466;-91
2023/04/27 02:02:56;;;;;;;13.13;7.03;;;3.40;99.90;;;;;;4929992;29;20032;-92
2023/04/27 02:05:23;;;;;;;11.15;6.35;;;3.30;99.90;;;;;;4927125;29;20031;-91
2023/04/27 02:07:49;;;;;;;14.73;6.32;;;3.30;99.90;;;;;;4926301;29;20104;-92
2023/04/27 02:10:15;;;;;;;15.93;6.85;;;3.30;99.90;;;;;;4927821;29;20024;-91
2023/04/27 02:12:41;;;;;;;16.55;6.43;;;3.30;99.90;;;;;;4902536;29;20052;-90
2023/04/27 02:15:07;;;;;;;12.65;6.70;;;3.30;99.90;;;;;;4909738;29;20119;-91
2023/04/27 02:17:37;;;;;;;15.25;7.45;;;3.30;99.90;;;;;;4911635;29;20024;-91
2023/04/27 02:20:05;;;;;;;18.73;7.90;;;3.30;99.90;;;;;;4911183;29;20056;-90
2023/04/27 02:22:31;;;;;;;14.23;7.03;;;3.30;99.90;;;;;;4905619;29;20032;-91
2023/04/27 02:24:58;;;;;;;16.63;7.68;;;3.20;99.90;;;;;;4908294;29;20059;-91
2023/04/27 02:27:23;;;;;;;16.08;7.43;;;3.20;99.90;;;;;;4904923;29;20032;-91
2023/04/27 02:29:49;;;;;;;13.75;7.15;;;3.10;99.90;;;;;;4901798;29;20434;-89
2023/04/27 02:32:15;;;;;;;21.13;8.15;;;3.10;99.90;;;;;;4902100;29;20038;-93
2023/04/27 02:34:40;;;;;;;17.30;7.60;;;3.10;99.90;;;;;;4901881;29;20028;-91
2023/04/27 02:37:06;;;;;;;21.73;8.07;;;3.10;99.90;;;;;;4901656;29;20120;-92
2023/04/27 02:39:32;;;;;;;19.83;8.68;;;3.10;99.90;;;;;;4901681;29;20490;-91
2023/04/27 02:41:58;;;;;;;16.30;7.60;;;3.10;99.90;;;;;;4901844;29;20019;-91
2023/04/27 02:44:24;;;;;;;19.40;7.88;;;3.10;99.90;;;;;;4901377;29;20032;-92
2023/04/27 02:46:49;;;;;;;20.58;7.88;;;3.10;99.90;;;;;;4901284;29;20079;-91
2023/04/27 02:49:16;;;;;;;17.52;8.07;;;3.10;99.90;;;;;;4901523;29;20483;-91
2023/04/27 02:51:41;;;;;;;14.55;7.53;;;3.10;99.90;;;;;;4901304;29;20048;-91
2023/04/27 02:54:08;;;;;;;14.90;7.70;;;3.00;99.90;;;;;;4901729;29;20032;-91
2023/04/27 02:56:34;;;;;;;17.00;7.60;;;3.00;99.90;;;;;;4901447;29;20032;-90
2023/04/27 02:59:00;;;;;;;21.15;8.02;;;3.00;99.90;;;;;;4901016;29;20044;-90
2023/04/27 03:01:25;;;;;;;21.08;7.78;;;3.00;99.90;;;;;;4901029;29;20020;-91
2023/04/27 03:03:51;;;;;;;15.40;8.35;;;3.00;99.90;;;;;;4901227;29;20478;-91
2023/04/27 03:06:17;;;;;;;16.40;7.57;;;3.00;99.90;;;;;;4901168;29;20478;-91
2023/04/27 03:08:43;;;;;;;17.17;8.10;;;3.00;99.90;;;;;;4901149;29;20024;-91
2023/04/27 03:11:08;;;;;;;16.27;8.00;;;3.00;99.90;;;;;;4900957;29;20563;-92
2023/04/27 03:13:40;;;;;;;18.70;8.40;;;3.00;99.90;;;;;;4900834;29;20115;-90
2023/04/27 03:16:10;;;;;;;21.75;8.27;;;2.90;99.90;;;;;;4902177;29;20032;-90
2023/04/27 03:18:38;;;;;;;16.92;7.93;;;2.90;99.90;;;;;;4907470;29;20035;-89
2023/04/27 03:21:11;;;;;;;19.27;8.35;;;2.90;99.90;;;;;;4910866;29;20028;-90
2023/04/27 03:23:38;;;;;;;18.42;7.90;;;2.90;99.90;;;;;;4905166;29;20032;-90
2023/04/27 03:26:12;;;;;;;26.20;8.85;;;2.90;99.90;;;;;;4902627;29;20024;-91
2023/04/27 03:28:38;;;;;;;20.27;9.27;;;2.90;99.90;;;;;;4901591;29;20469;-90
2023/04/27 03:31:12;;;;;;;19.38;8.43;;;2.90;99.90;;;;;;4900702;29;20016;-90
2023/04/27 03:33:39;;;;;;;19.35;9.07;;;2.90;99.90;;;;;;4899593;29;20390;-91
2023/04/27 03:36:06;;;;;;;20.27;8.45;;;2.90;99.90;;;;;;4900803;29;20020;-91
2023/04/27 03:38:32;;;;;;;17.92;8.35;;;2.80;99.90;;;;;;4895734;29;20032;-90
2023/04/27 03:40:58;;;;;;;22.60;9.65;;;2.80;99.90;;;;;;4901528;29;20036;-89
2023/04/27 03:43:24;;;;;;;20.58;9.30;;;2.80;99.90;;;;;;4907921;29;20032;-90
2023/04/27 03:45:50;;;;;;;20.20;9.65;;;2.80;99.90;;;;;;4915743;29;20038;-88
2023/04/27 03:48:16;;;;;;;17.67;9.68;;;2.80;99.90;;;;;;4915654;29;20020;-89
2023/04/27 03:50:43;;;;;;;22.20;8.98;;;2.80;99.90;;;;;;4916278;29;20039;-88
2023/04/27 03:53:09;;;;;;;18.10;9.25;;;2.80;99.90;;;;;;4916099;29;20028;-90
2023/04/27 03:55:42;;;;;;;22.25;9.85;;;2.70;99.90;;;;;;4915352;29;20023;-91
2023/04/27 03:58:09;;;;;;;21.77;9.77;;;2.70;99.90;;;;;;4916248;29;20024;-89
2023/04/27 04:00:36;;;;;;;18.52;9.60;;;2.70;99.90;;;;;;4916071;29;20090;-90
2023/04/27 04:03:02;;;;;;;21.40;9.00;;;2.70;99.90;;;;;;4909104;29;20040;-91
2023/04/27 04:05:29;;;;;;;20.38;10.15;;;2.70;99.90;;;;;;4904653;29;20478;-91
2023/04/27 04:07:56;;;;;;;18.33;8.63;;;2.80;99.90;;;;;;4905149;29;20024;-91
2023/04/27 04:10:22;;;;;;;18.08;9.63;;;2.70;99.90;;;;;;4904395;29;20513;-92
2023/04/27 04:12:47;;;;;;;22.35;10.13;;;2.70;99.90;;;;;;4916369;29;20040;-91
2023/04/27 04:15:13;;;;;;;21.88;10.50;;;2.80;99.90;;;;;;4911693;29;20489;-92
2023/04/27 04:17:39;;;;;;;22.83;9.65;;;2.80;99.90;;;;;;4912186;29;20043;-93
2023/04/27 04:20:09;;;;;;;18.75;8.90;;;2.80;99.90;;;;;;4909908;29;20043;-92
2023/04/27 04:22:35;;;;;;;22.77;8.85;;;2.80;99.90;;;;;;4908505;29;20020;-92
2023/04/27 04:25:01;;;;;;;22.50;10.52;;;2.80;99.90;;;;;;4910385;29;20032;-91
2023/04/27 04:27:27;;;;;;;26.05;11.10;;;2.80;99.90;;;;;;4908786;29;20027;-91
2023/04/27 04:29:52;;;;;;;22.17;10.13;;;2.70;99.90;;;;;;4909158;29;20131;-92
2023/04/27 04:32:19;;;;;;;23.98;10.18;;;2.70;99.90;;;;;;4912458;29;20035;-91
2023/04/27 04:34:51;;;;;;;22.05;10.18;;;2.70;99.90;;;;;;4909914;29;20035;-92
2023/04/27 04:37:19;;;;;;;23.70;10.50;;;2.70;99.90;;;;;;4910303;29;20039;-92
2023/04/27 04:39:45;;;;;;;23.70;10.15;;;2.80;99.90;;;;;;4928714;29;20032;-93
2023/04/27 04:42:11;;;;;;;25.90;11.35;;;2.80;99.90;;;;;;4908725;29;20024;-91
2023/04/27 04:44:37;;;;;;;19.45;10.05;;;2.80;99.90;;;;;;4914277;29;20023;-92
2023/04/27 04:47:03;;;;;;;26.33;9.95;;;2.80;99.90;;;;;;4913669;29;20020;-91
2023/04/27 04:49:29;;;;;;;18.58;9.20;;;2.80;99.90;;;;;;4908981;29;20032;-92
2023/04/27 04:51:55;;;;;;;20.98;10.20;;;2.90;99.90;;;;;;4913444;29;20386;-92
2023/04/27 04:54:20;;;;;;;21.00;10.13;;;2.80;99.90;;;;;;4918806;29;20012;-90
2023/04/27 04:56:46;;;;;;;19.40;9.73;;;2.90;99.90;;;;;;4920382;29;20024;-92
2023/04/27 04:59:12;;;;;;;22.33;9.98;;;2.90;99.90;;;;;;4915070;29;20087;-92
2023/04/27 05:01:37;;;;;;;21.20;9.85;;;2.90;99.90;;;;;;4909293;29;20020;-92
2023/04/27 05:04:03;;;;;;;22.67;11.02;;;2.90;99.90;;;;;;4910965;29;20028;-92
2023/04/27 05:06:29;;;;;;;24.92;10.93;;;3.00;99.90;;;;;;4927330;29;20024;-92
2023/04/27 05:08:55;;;;;;;28.13;11.65;;;3.00;99.90;;;;;;4910614;29;20031;-92
2023/04/27 05:11:21;;;;;;;23.42;10.73;;;3.00;99.90;;;;;;4910198;29;20054;-93
2023/04/27 05:13:46;;;;;;;23.25;10.80;;;3.00;99.90;;;;;;4908683;29;20478;-90
2023/04/27 05:16:12;;;;;;;22.15;10.80;;;3.00;99.90;;;;;;4915158;29;20052;-93
2023/04/27 05:18:38;;;;;;;23.67;11.10;;;3.10;99.90;;;;;;4915081;29;20055;-92
2023/04/27 05:21:04;;;;;;;25.80;12.00;;;3.10;99.90;;;;;;4914696;29;20044;-91
2023/04/27 05:23:30;;;;;;;26.65;11.32;;;3.10;99.90;;;;;;4912838;29;20024;-92
2023/04/27 05:25:55;;;;;;;26.42;11.95;;;3.10;99.90;;;;;;4914938;29;20028;-91
2023/04/27 05:28:21;;;;;;;25.95;11.65;;;3.10;99.90;;;;;;4913218;29;20450;-92
2023/04/27 05:30:46;;;;;;;32.17;13.95;;;3.10;99.90;;;;;;4931838;29;20027;-91
2023/04/27 05:33:12;;;;;;;26.17;12.30;;;3.10;99.90;;;;;;4911635;29;20043;-92
2023/04/27 05:35:38;;;;;;;28.58;13.70;;;3.10;99.90;;;;;;4914120;29;20478;-90
2023/04/27 05:38:03;;;;;;;29.05;13.98;;;3.10;99.90;;;;;;4912361;29;20477;-92
2023/04/27 05:40:29;;;;;;;40.25;14.07;;;3.10;99.90;;;;;;4912014;29;20044;-91
2023/04/27 05:42:55;;;;;;;24.70;12.82;;;3.10;99.90;;;;;;4911748;29;20035;-91
2023/04/27 05:45:21;;;;;;;36.88;14.13;;;3.10;99.90;;;;;;4912497;29;20026;-90
2023/04/27 05:47:47;;;;;;;30.13;13.60;;;3.10;99.90;;;;;;4911975;29;20081;-89
2023/04/27 05:50:12;;;;;;;29.83;13.27;;;3.10;99.90;;;;;;4915164;29;20116;-90
2023/04/27 05:52:38;;;;;;;29.25;13.85;;;3.20;99.90;;;;;;4910388;29;20032;-89
2023/04/27 05:55:04;;;;;;;33.25;13.95;;;3.20;99.90;;;;;;4916125;29;20050;-89
2023/04/27 05:57:32;;;;;;;31.65;13.50;;;3.20;99.90;;;;;;4918062;29;20473;-89
2023/04/27 05:59:57;;;;;;;30.38;13.98;;;3.30;99.90;;;;;;4915307;29;20044;-91
2023/04/27 06:02:23;;;;;;;30.70;13.52;;;3.30;99.90;;;;;;4920796;29;20024;-88
2023/04/27 06:04:48;;;;;;;28.92;12.32;;;3.40;99.90;;;;;;4918037;29;20063;-90
2023/04/27 06:07:15;;;;;;;31.50;11.98;;;3.40;99.90;;;;;;4920887;29;20024;-90
2023/04/27 06:09:41;;;;;;;27.65;12.98;;;3.40;99.90;;;;;;4919139;29;20492;-89
2023/04/27 06:12:08;;;;;;;33.92;13.68;;;3.50;99.90;;;;;;4931477;29;20505;-90
2023/04/27 06:14:36;;;;;;;30.83;13.27;;;3.50;99.90;;;;;;4932709;29;20071;-91
2023/04/27 06:17:02;;;;;;;30.60;13.43;;;3.60;99.90;;;;;;4923403;29;20031;-89
2023/04/27 06:19:28;;;;;;;30.10;13.30;;;3.60;99.90;;;;;;4930544;29;20094;-90
2023/04/27 06:21:54;;;;;;;29.20;13.93;;;3.70;99.90;;;;;;4946207;29;20043;-90
2023/04/27 06:24:21;;;;;;;31.65;13.20;;;3.70;99.90;;;;;;4939697;29;20059;-90
2023/04/27 06:26:48;;;;;;;27.15;12.70;;;3.80;99.90;;;;;;4940869;29;20024;-90
2023/04/27 06:29:13;;;;;;;26.85;12.35;;;3.90;99.90;;;;;;4937637;29;20102;-89
2023/04/27 06:31:40;;;;;;;28.42;11.50;;;3.90;99.90;;;;;;4942024;29;20473;-91
2023/04/27 06:34:06;;;;;;;25.45;12.45;;;3.90;99.90;;;;;;4942778;29;20044;-90
2023/04/27 06:36:32;;;;;;;34.67;13.07;;;4.00;99.90;;;;;;4934749;29;20122;-91
2023/04/27 06:38:58;;;;;;;26.10;12.10;;;4.10;99.90;;;;;;4940641;29;20035;-91
2023/04/27 06:41:25;;;;;;;30.88;13.15;;;4.10;99.90;;;;;;4934452;29;20322;-90
2023/04/27 06:43:51;;;;;;;19.63;10.63;;;4.20;99.90;;;;;;4935918;29;20030;-89
2023/04/27 06:46:18;;;;;;;28.90;11.82;;;4.30;99.90;;;;;;4935454;29;20027;-89
2023/04/27 06:48:43;;;;;;;23.38;11.15;;;4.50;99.90;;;;;;4931426;29;20028;-90
2023/04/27 06:51:09;;;;;;;26.05;11.65;;;4.60;99.90;;;;;;4926524;29;20080;-91
2023/04/27 06:53:35;;;;;;;34.10;11.95;;;4.70;99.90;;;;;;4930428;29;20104;-90
2023/04/27 06:56:01;;;;;;;23.55;12.00;;;4.80;99.90;;;;;;4928418;29;20027;-90
2023/04/27 06:58:27;;;;;;;28.60;12.40;;;4.90;99.90;;;;;;4928575;29;20032;-88
2023/04/27 07:00:52;;;;;;;26.15;11.95;;;5.00;99.90;;;;;;4926022;29;20028;-89
2023/04/27 07:03:19;;;;;;;27.50;12.50;;;5.00;99.90;;;;;;4927102;29;20051;-89
2023/04/27 07:05:45;;;;;;;23.23;11.18;;;5.20;99.90;;;;;;4927154;29;20035;-88
2023/04/27 07:08:11;;;;;;;24.65;12.05;;;5.30;99.90;;;;;;4930790;29;20028;-89
2023/04/27 07:10:37;;;;;;;22.60;11.77;;;5.40;99.90;;;;;;4944352;28;20032;-89
2023/04/27 07:13:03;;;;;;;26.40;11.82;;;5.50;99.90;;;;;;4914939;29;20036;-88
2023/04/27 07:15:30;;;;;;;27.42;12.00;;;5.50;99.90;;;;;;4918980;29;20261;-88
2023/04/27 07:17:56;;;;;;;23.55;11.63;;;5.60;99.90;;;;;;4918838;29;20079;-88
2023/04/27 07:20:22;;;;;;;31.73;12.73;;;5.70;99.90;;;;;;4920053;29;20048;-89
2023/04/27 07:22:47;;;;;;;26.63;11.80;;;5.80;99.90;;;;;;4919846;29;20114;-88
2023/04/27 07:25:13;;;;;;;33.28;14.27;;;5.80;99.90;;;;;;4907105;29;20446;-89
2023/04/27 07:27:40;;;;;;;36.60;13.25;;;5.90;99.90;;;;;;4902957;29;20493;-89
2023/04/27 07:30:08;;;;;;;26.38;13.13;;;6.00;99.90;;;;;;4910611;29;20035;-90
2023/04/27 07:32:38;;;;;;;23.75;12.77;;;6.00;99.90;;;;;;4918159;29;20052;-88
2023/04/27 07:35:04;;;;;;;29.92;12.63;;;6.10;99.90;;;;;;4920212;29;20094;-88
2023/04/27 07:37:30;;;;;;;26.70;13.18;;;6.20;99.90;;;;;;4918649;29;20032;-88
2023/04/27 07:39:58;;;;;;;24.02;12.40;;;6.20;99.90;;;;;;4917990;29;20406;-88
2023/04/27 07:42:24;;;;;;;29.67;13.63;;;6.40;99.90;;;;;;4918876;29;20083;-87
2023/04/27 07:44:50;;;;;;;33.83;14.15;;;6.50;99.90;;;;;;4918465;29;20438;-87
2023/04/27 07:47:17;;;;;;;26.80;14.23;;;6.60;99.90;;;;;;4919336;29;20055;-88
2023/04/27 07:49:47;;;;;;;32.30;14.73;;;6.70;99.90;;;;;;4919314;29;20032;-88
2023/04/27 07:52:13;;;;;;;31.48;14.07;;;6.70;99.90;;;;;;4920421;29;20126;-88
2023/04/27 07:54:39;;;;;;;27.42;13.75;;;6.90;99.90;;;;;;4920988;29;20028;-87
2023/04/27 07:57:12;;;;;;;30.65;15.52;;;7.00;99.90;;;;;;4919511;29;20031;-87
2023/04/27 07:59:38;;;;;;;33.22;15.80;;;7.00;99.90;;;;;;4919401;29;20071;-86
2023/04/27 08:02:04;;;;;;;32.58;16.27;;;7.20;99.90;;;;;;4915923;29;20020;-87
2023/04/27 08:04:30;;;;;;;35.58;16.35;;;7.30;99.90;;;;;;4902263;29;20454;-88
2023/04/27 08:06:56;;;;;;;34.72;15.30;;;7.40;99.90;;;;;;4901493;29;20075;-89
2023/04/27 08:09:22;;;;;;;29.30;13.93;;;7.50;99.90;;;;;;4901214;29;20513;-89
2023/04/27 08:11:47;;;;;;;29.40;14.30;;;7.60;99.90;;;;;;4909011;29;20044;-88
2023/04/27 08:14:13;;;;;;;38.08;15.60;;;7.70;99.90;;;;;;4932095;29;20027;-88
2023/04/27 08:16:43;;;;;;;32.25;14.82;;;7.90;99.90;;;;;;4935408;29;20035;-89
2023/04/27 08:19:09;;;;;;;35.47;15.30;;;8.00;99.90;;;;;;4935994;29;20024;-89
2023/04/27 08:21:38;;;;;;;37.53;16.77;;;8.10;99.90;;;;;;4935042;29;20027;-89
2023/04/27 08:24:05;;;;;;;32.63;14.73;;;8.20;99.90;;;;;;4935503;29;20119;-88
2023/04/27 08:26:32;;;;;;;35.60;14.18;;;8.40;99.90;;;;;;4935737;29;20050;-89
2023/04/27 08:29:01;;;;;;;25.02;12.65;;;8.60;99.90;;;;;;4936149;29;20078;-90
2023/04/27 08:31:26;;;;;;;29.17;12.75;;;8.80;99.90;;;;;;4937056;29;20032;-89
2023/04/27 08:33:52;;;;;;;25.42;11.93;;;8.90;99.90;;;;;;4937959;29;20523;-89
2023/04/27 08:36:23;;;;;;;24.58;12.95;;;9.10;99.90;;;;;;4939519;29;20027;-90
2023/04/27 08:38:50;;;;;;;30.08;12.85;;;9.20;99.90;;;;;;4936129;29;20032;-90
2023/04/27 08:41:20;;;;;;;22.45;12.40;;;9.30;99.90;;;;;;4934657;29;20108;-91
2023/04/27 08:43:48;;;;;;;26.67;12.38;;;9.40;99.90;;;;;;4934060;29;20044;-90
2023/04/27 08:46:18;;;;;;;28.88;13.23;;;9.50;99.90;;;;;;4933732;29;20035;-90
2023/04/27 08:48:46;;;;;;;26.83;12.55;;;9.60;99.90;;;;;;4934771;29;20493;-89
2023/04/27 08:51:15;;;;;;;27.15;13.23;;;9.60;99.90;;;;;;4931287;29;20031;-90
2023/04/27 08:53:52;;;;;;;28.42;11.80;;;9.70;99.90;;;;;;4938245;29;20024;-90
2023/04/27 08:56:19;;;;;;;24.35;11.02;;;9.80;99.90;;;;;;4939147;29;20091;-89
2023/04/27 08:58:46;;;;;;;24.75;12.57;;;9.80;99.90;;;;;;4940609;29;20087;-90
2023/04/27 09:01:12;;;;;;;23.75;11.93;;;9.90;99.90;;;;;;4940021;29;20031;-89
2023/04/27 09:03:37;;;;;;;24.45;11.27;;;10.00;99.90;;;;;;4937891;29;20386;-90
2023/04/27 09:06:04;;;;;;;28.48;12.48;;;10.10;99.90;;;;;;4938501;29;20481;-89
2023/04/27 09:08:49;;;;;;;23.33;12.00;;;10.10;99.90;;;;;;4938653;29;20075;-89
2023/04/27 09:11:32;;;;;;;25.38;12.18;;;10.10;99.90;;;;;;4937445;29;20099;-88
2023/04/27 09:13:59;;;;;;;22.77;12.23;;;10.20;99.90;;;;;;4940703;29;20036;-88
2023/04/27 09:16:28;;;;;;;23.98;12.05;;;10.30;99.90;;;;;;4938640;29;20035;-90
2023/04/27 09:18:54;;;;;;;28.13;12.05;;;10.30;99.90;;;;;;4939879;29;20098;-88
2023/04/27 09:21:28;;;;;;;26.58;12.93;;;10.40;99.90;;;;;;4938520;29;20131;-89
2023/04/27 09:23:54;;;;;;;27.63;11.77;;;10.50;99.90;;;;;;4938652;29;20044;-90
2023/04/27 09:26:25;;;;;;;24.98;12.27;;;10.60;99.90;;;;;;4939169;29;20034;-90
2023/04/27 09:28:58;;;;;;;25.42;12.13;;;10.60;99.90;;;;;;4941466;29;20136;-95
2023/04/27 09:31:31;;;;;;;24.95;11.70;;;10.70;99.90;;;;;;4943726;29;20098;-95
2023/04/27 09:33:57;;;;;;;22.60;11.63;;;10.80;99.90;;;;;;4942153;29;20034;-95
2023/04/27 09:36:24;;;;;;;20.80;11.68;;;10.90;99.90;;;;;;4940729;29;20031;-89
2023/04/27 09:38:51;;;;;;;23.80;12.05;;;11.00;99.90;;;;;;4937385;29;20091;-92
2023/04/27 09:41:17;;;;;;;27.70;12.73;;;11.10;99.90;;;;;;4938524;29;20441;-92
2023/04/27 09:43:47;;;;;;;25.45;12.88;;;11.20;99.90;;;;;;4937926;29;20489;-92
2023/04/27 09:46:13;;;;;;;26.10;11.38;;;11.30;99.80;;;;;;4938352;29;20031;-92
2023/04/27 09:48:40;;;;;;;25.50;12.40;;;11.50;99.10;;;;;;4938104;29;20465;-92
2023/04/27 09:51:06;;;;;;;23.63;11.63;;;11.50;98.50;;;;;;4938768;29;20083;-92
2023/04/27 09:53:43;;;;;;;27.52;11.90;;;11.60;98.20;;;;;;4937997;29;20035;-92
2023/04/27 09:56:25;;;;;;;24.83;11.75;;;11.70;97.80;;;;;;4938914;29;20035;-92
2023/04/27 09:59:11;;;;;;;24.20;12.40;;;11.70;97.10;;;;;;4920761;29;20099;-92
2023/04/27 10:01:40;;;;;;;29.90;12.65;;;11.80;96.80;;;;;;4922072;29;20031;-91
2023/04/27 10:04:40;;;;;;;22.83;11.52;;;11.80;96.20;;;;;;4938146;29;20031;-92
2023/04/27 10:07:13;;;;;;;23.60;11.23;;;11.80;96.00;;;;;;4938395;29;20513;-92
2023/04/27 10:09:41;;;;;;;21.58;11.13;;;11.90;95.90;;;;;;4937966;29;20079;-92
2023/04/27 10:12:21;;;;;;;23.83;11.48;;;12.00;95.70;;;;;;4937316;29;20143;-92
2023/04/27 10:14:55;;;;;;;22.23;10.60;;;12.10;95.30;;;;;;4934383;29;20071;-92
2023/04/27 10:17:29;;;;;;;23.55;11.00;;;12.10;94.40;;;;;;4928456;29;20028;-92
2023/04/27 10:20:00;;;;;;;30.27;11.18;;;12.00;94.20;;;;;;4937668;29;20040;-92
2023/04/27 10:22:43;;;;;;;21.42;10.65;;;12.00;93.80;;;;;;4938242;29;20114;-93
2023/04/27 10:25:20;;;;;;;21.10;10.40;;;11.90;93.60;;;;;;4950122;29;20032;-91
2023/04/27 10:27:52;;;;;;;24.75;11.20;;;11.80;93.50;;;;;;4941785;29;20040;-91
2023/04/27 10:30:19;;;;;;;21.45;9.60;;;11.80;93.40;;;;;;4942884;29;20043;-91
2023/04/27 10:32:53;;;;;;;26.75;9.98;;;11.70;93.40;;;;;;4945227;29;20074;-91
2023/04/27 10:35:22;;;;;;;25.33;10.18;;;11.80;93.50;;;;;;4946157;29;20028;-92
2023/04/27 10:37:48;;;;;;;20.98;9.32;;;11.70;93.20;;;;;;4944314;29;20031;-91
2023/04/27 10:40:18;;;;;;;18.65;9.57;;;11.70;93.20;;;;;;4945752;29;20047;-91
2023/04/27 10:42:49;;;;;;;23.10;10.40;;;11.80;93.20;;;;;;4942529;29;20091;-91
2023/04/27 10:45:26;;;;;;;21.50;10.65;;;11.70;92.80;;;;;;4942366;29;20024;-91
2023/04/27 10:48:00;;;;;;;23.27;9.55;;;11.70;92.60;;;;;;4937190;29;20027;-91
2023/04/27 10:50:26;;;;;;;26.92;11.27;;;11.70;92.50;;;;;;4936947;29;20484;-90
2023/04/27 10:52:52;;;;;;;25.15;11.13;;;11.70;92.50;;;;;;4937370;29;20438;-90
2023/04/27 10:55:20;;;;;;;21.63;10.93;;;11.70;92.30;;;;;;4937034;29;20058;-92
2023/04/27 10:57:54;;;;;;;21.88;10.23;;;11.70;92.20;;;;;;4937657;29;20072;-92
2023/04/27 11:00:24;;;;;;;19.58;10.65;;;11.70;92.00;;;;;;4937624;29;20048;-89
2023/04/27 11:02:50;;;;;;;25.63;10.98;;;11.70;92.00;;;;;;4936862;29;20034;-91
2023/04/27 11:05:17;;;;;;;20.85;10.30;;;11.60;91.70;;;;;;4937778;29;20035;-89
2023/04/27 11:07:43;;;;;;;28.33;11.43;;;11.60;91.60;;;;;;4935820;29;20521;-91
2023/04/27 11:10:13;;;;;;;22.58;10.55;;;11.60;91.70;;;;;;4938568;29;20031;-91
2023/04/27 11:12:39;;;;;;;19.48;9.60;;;11.60;91.70;;;;;;4940515;29;20494;-91
2023/04/27 11:15:06;;;;;;;27.75;10.75;;;11.50;91.70;;;;;;4938779;29;20048;-91
2023/04/27 11:17:31;;;;;;;18.65;9.48;;;11.50;91.70;;;;;;4935625;29;20473;-91
2023/04/27 11:19:57;;;;;;;27.65;10.70;;;11.50;91.40;;;;;;4933372;29;20031;-92
2023/04/27 11:22:23;;;;;;;20.85;9.30;;;11.40;91.00;;;;;;4940537;29;20023;-92
2023/04/27 11:24:50;;;;;;;25.42;9.90;;;11.40;91.00;;;;;;4940943;29;20048;-91
2023/04/27 11:27:16;;;;;;;24.73;10.15;;;11.40;91.00;;;;;;4940867;29;20024;-90
2023/04/27 11:29:42;;;;;;;19.45;10.40;;;11.50;91.00;;;;;;4940701;29;20024;-88
2023/04/27 11:32:20;;;;;;;19.80;9.45;;;11.50;90.90;;;;;;4940676;29;20016;-93
2023/04/27 11:34:53;;;;;;;21.50;10.23;;;11.50;90.90;;;;;;4939775;29;20031;-92
2023/04/27 11:37:24;;;;;;;22.63;9.48;;;11.60;90.90;;;;;;4940724;29;20044;-91
2023/04/27 11:39:50;;;;;;;;;;;11.60;90.90;;;;;;4940760;29;20032;-91
2023/04/27 11:42:28;;;;;;;23.42;9.65;;;11.70;91.00;;;;;;4939590;29;19903;-94
2023/04/27 11:44:56;;;;;;;20.65;9.40;;;11.70;90.60;;;;;;4937775;29;20040;-94
2023/04/27 11:47:23;;;;;;;22.23;10.32;;;11.70;90.40;;;;;;4940153;29;20371;-92
2023/04/27 11:49:51;;;;;;;18.90;9.68;;;11.70;90.20;;;;;;4940062;29;20056;-89
2023/04/27 11:52:17;;;;;;;27.33;9.52;;;11.70;90.00;;;;;;4940065;29;20095;-93
2023/04/27 11:55:03;;;;;;;20.92;9.88;;;11.70;89.80;;;;;;4939219;29;20024;-91
2023/04/27 11:57:30;;;;;;;22.02;9.30;;;11.60;89.60;;;;;;4940261;29;20035;-92
2023/04/27 12:00:01;;;;;;;27.70;9.32;;;11.70;89.80;;;;;;4940177;29;20047;-93
2023/04/27 12:02:27;;;;;;;18.50;9.55;;;11.70;90.00;;;;;;4933500;29;20130;-90
2023/04/27 12:04:53;;;;;;;22.05;9.25;;;11.70;90.00;;;;;;4916902;29;20091;-87
2023/04/27 12:07:19;;;;;;;25.63;10.00;;;11.80;89.90;;;;;;4921147;29;20111;-89
2023/04/27 12:09:45;;;;;;;19.60;9.75;;;11.80;89.40;;;;;;4935280;29;20032;-89
2023/04/27 12:12:12;;;;;;;22.15;10.98;;;11.80;89.10;;;;;;4934980;29;20052;-89
2023/04/27 12:14:38;;;;;;;24.58;10.90;;;11.80;88.70;;;;;;4934876;29;20398;-89
2023/04/27 12:17:04;;;;;;;23.17;10.18;;;11.80;88.80;;;;;;4935264;29;20023;-89
2023/04/27 12:19:30;;;;;;;25.98;11.35;;;11.80;88.90;;;;;;4934766;29;20569;-89
2023/04/27 12:21:57;;;;;;;22.70;10.50;;;11.90;89.00;;;;;;4928664;29;20039;-89
2023/04/27 12:24:23;;;;;;;23.35;10.70;;;11.90;88.90;;;;;;4920892;29;20040;-89
2023/04/27 12:26:50;;;;;;;21.92;11.05;;;11.90;88.50;;;;;;4918101;29;20393;-89
2023/04/27 12:29:16;;;;;;;27.08;10.57;;;11.80;87.90;;;;;;4916156;29;20478;-89
2023/04/27 12:31:42;;;;;;;20.35;10.77;;;11.70;87.80;;;;;;4916233;29;20032;-89
2023/04/27 12:34:08;;;;;;;22.55;12.73;;;11.60;88.10;;;;;;4916371;29;20111;-89
2023/04/27 12:36:33;;;;;;;27.38;13.02;;;11.60;88.50;;;;;;4916808;29;20043;-89
2023/04/27 12:39:13;;;;;;;28.30;13.05;;;11.60;88.90;;;;;;4916598;29;20036;-90